NCAR-RAP Real-Time Weather Data

Output produced by METARs form (24 October 2014  21:18 UTC)
found at http://weather.rap.ucar.edu/surface/
 
Conditions at: KALB observed 24 October 2014  20:51 UTC
Temperature: 8.9°C (48°F)
Dewpoint: 6.7°C (44°F) [RH = 86%]
Pressure (altimeter): 29.82 inches Hg (1009.9 mb)
[Sea-level pressure: 1009.9 mb]
Winds: from the NNE (20 degrees) at 6 MPH (5 knots; 2.6 m/s)
Visibility: 10 or more miles (16+ km)
Ceiling: 3700 feet AGL
Clouds: few clouds at 800 feet AGL
overcast cloud deck at 3700 feet AGL
Present Weather:
SOME DATA ABOVE MAY BE INACCURATE!!!
"$" is an indication the sensor requires maintenance
KALB 242051Z 02005KT 10SM FEW008 OVC037 09/07 A2982 RMK AO2 SLP099 60000 T00890067 53002 $

Conditions at: KALB observed 24 October 2014  20:21 UTC
Temperature: 8.9°C (48°F)
Dewpoint: 6.7°C (44°F) [RH = 86%]
Pressure (altimeter): 29.82 inches Hg (1009.9 mb)
Winds: from the NNE (20 degrees) at 8 MPH (7 knots; 3.6 m/s)
Visibility: 10 or more miles (16+ km)
Ceiling: 3500 feet AGL
Clouds: scattered clouds at 800 feet AGL
overcast cloud deck at 3500 feet AGL
Present Weather:
SOME DATA ABOVE MAY BE INACCURATE!!!
"$" is an indication the sensor requires maintenance
KALB 242021Z 02007KT 10SM SCT008 OVC035 09/07 A2982 RMK AO2 T00890067 $

Conditions at: KALB observed 24 October 2014  19:51 UTC
Temperature: 8.9°C (48°F)
Dewpoint: 6.7°C (44°F) [RH = 86%]
Pressure (altimeter): 29.81 inches Hg (1009.6 mb)
[Sea-level pressure: 1009.7 mb]
Winds: from the NNE (20 degrees) at 9 MPH (8 knots; 4.2 m/s)
Visibility: 10 or more miles (16+ km)
Ceiling: 600 feet AGL
Clouds: broken clouds at 600 feet AGL
overcast cloud deck at 3300 feet AGL
Present Weather:
SOME DATA ABOVE MAY BE INACCURATE!!!
"$" is an indication the sensor requires maintenance
KALB 241951Z 02008KT 10SM BKN006 OVC033 09/07 A2981 RMK AO2 SLP097 BKN V SCT T00890067 $

Conditions at: KALB observed 24 October 2014  18:56 UTC
Temperature: 9.4°C (49°F)
Dewpoint: 7.8°C (46°F) [RH = 90%]
Pressure (altimeter): 29.81 inches Hg (1009.6 mb)
Winds: from the NE (40 degrees) at 7 MPH (6 knots; 3.1 m/s)
Visibility: 10 or more miles (16+ km)
Ceiling: 600 feet AGL
Clouds: broken clouds at 600 feet AGL
overcast cloud deck at 3100 feet AGL
Present Weather: no significant weather observed at this time
KALB 241856Z 04006KT 10SM BKN006 OVC031 09/08 A2981 RMK AO2 BKN V SCT T00940078

Conditions at: KALB observed 24 October 2014  18:51 UTC
Temperature: 9.4°C (49°F)
Dewpoint: 7.8°C (46°F) [RH = 90%]
Pressure (altimeter): 29.81 inches Hg (1009.6 mb)
[Sea-level pressure: 1009.5 mb]
Winds: from the NNE (30 degrees) at 6 MPH (5 knots; 2.6 m/s)
Visibility: 10 or more miles (16+ km)
Ceiling: 3100 feet AGL
Clouds: scattered clouds at 600 feet AGL
overcast cloud deck at 3100 feet AGL
Present Weather: no significant weather observed at this time
KALB 241851Z 03005KT 10SM SCT006 OVC031 09/08 A2981 RMK AO2 DZE12 SLP095 SCT V BKN P0000 T00940078

Conditions at: KALB observed 24 October 2014  18:35 UTC
Temperature: 9.4°C (49°F)
Dewpoint: 7.8°C (46°F) [RH = 90%]
Pressure (altimeter): 29.81 inches Hg (1009.6 mb)
Winds: from the NE (40 degrees) at 8 MPH (7 knots; 3.6 m/s)
Visibility: 10 or more miles (16+ km)
Ceiling: 3100 feet AGL
Clouds: few clouds at 500 feet AGL
scattered clouds at 2400 feet AGL
overcast cloud deck at 3100 feet AGL
Present Weather:
SOME DATA ABOVE MAY BE INACCURATE!!!
"$" is an indication the sensor requires maintenance
KALB 241835Z 04007KT 10SM FEW005 SCT024 OVC031 09/08 A2981 RMK AO2 DZE12 SCT V BKN P0000 T00940078 $

Conditions at: KALB observed 24 October 2014  17:51 UTC
Temperature: 9.4°C (49°F)
Dewpoint: 7.8°C (46°F) [RH = 90%]
Pressure (altimeter): 29.81 inches Hg (1009.6 mb)
[Sea-level pressure: 1009.7 mb]
Winds: from the NNE (30 degrees) at 6 MPH (5 knots; 2.6 m/s)
Visibility: 7 miles (11 km)
Ceiling: 1700 feet AGL
Clouds: scattered clouds at 500 feet AGL
broken clouds at 1700 feet AGL
overcast cloud deck at 2500 feet AGL
Present Weather: -DZ  (light drizzle)
SOME DATA ABOVE MAY BE INACCURATE!!!
"$" is an indication the sensor requires maintenance
KALB 241751Z 03005KT 7SM -DZ SCT005 BKN017 OVC025 09/08 A2981 RMK AO2 DZE1656B13E26B45 SLP097 VIS NW 2 1/2 P0000 60013 T00940078 10094 20072 58016 $

Conditions at: KALB observed 24 October 2014  17:15 UTC
Temperature: 9.4°C (49°F)
Dewpoint: 7.8°C (46°F) [RH = 90%]
Pressure (altimeter): 29.83 inches Hg (1010.2 mb)
Winds: from the NE (40 degrees) at 5 MPH (4 knots; 2.1 m/s)
Visibility: 9 miles (14 km)
Ceiling: 1500 feet AGL
Clouds: scattered clouds at 600 feet AGL
broken clouds at 1500 feet AGL
overcast cloud deck at 2200 feet AGL
Present Weather: -DZ  (light drizzle)
SOME DATA ABOVE MAY BE INACCURATE!!!
"$" is an indication the sensor requires maintenance
KALB 241715Z 04004KT 9SM -DZ SCT006 BKN015 OVC022 09/08 A2983 RMK AO2 DZE1656B13 P0000 T00940078 $

Conditions at: KALB observed 24 October 2014  16:58 UTC
Temperature: 9.4°C (49°F)
Dewpoint: 7.8°C (46°F) [RH = 90%]
Pressure (altimeter): 29.83 inches Hg (1010.2 mb)
Winds: from the NNE (30 degrees) at 5 MPH (4 knots; 2.1 m/s)
Visibility: 9 miles (14 km)
Ceiling: 1100 feet AGL
Clouds: scattered clouds at 600 feet AGL
broken clouds at 1100 feet AGL
overcast cloud deck at 2200 feet AGL
Present Weather:
SOME DATA ABOVE MAY BE INACCURATE!!!
"$" is an indication the sensor requires maintenance
KALB 241658Z 03004KT 9SM SCT006 BKN011 OVC022 09/08 A2983 RMK AO2 DZE56 P0000 T00940078 $

Conditions at: KALB observed 24 October 2014  16:51 UTC
Temperature: 8.9°C (48°F)
Dewpoint: 7.8°C (46°F) [RH = 93%]
Pressure (altimeter): 29.83 inches Hg (1010.2 mb)
[Sea-level pressure: 1010.3 mb]
Winds: calm
Visibility: 8 miles (13 km)
Ceiling: 700 feet AGL
Clouds: few clouds at 400 feet AGL
broken clouds at 700 feet AGL
overcast cloud deck at 2200 feet AGL
Present Weather: -DZ  (light drizzle)
SOME DATA ABOVE MAY BE INACCURATE!!!
"$" is an indication the sensor requires maintenance
KALB 241651Z 00000KT 8SM -DZ FEW004 BKN007 OVC022 09/08 A2983 RMK AO2 SLP103 PCPN VRY LGT P0002 T00890078 $

Conditions at: KALB observed 24 October 2014  15:51 UTC
Temperature: 8.3°C (47°F)
Dewpoint: 6.7°C (44°F) [RH = 90%]
Pressure (altimeter): 29.86 inches Hg (1011.3 mb)
[Sea-level pressure: 1011.2 mb]
Winds: from the NNE (30 degrees) at 3 MPH (3 knots; 1.6 m/s)
Visibility: 4 miles (6 km)
Ceiling: 600 feet AGL
Clouds: few clouds at 400 feet AGL
broken clouds at 600 feet AGL
overcast cloud deck at 1200 feet AGL
Present Weather: -DZ BR  (light drizzle, mist)
SOME DATA ABOVE MAY BE INACCURATE!!!
"$" is an indication the sensor requires maintenance
KALB 241551Z 03003KT 4SM -DZ BR FEW004 BKN006 OVC012 08/07 A2986 RMK AO2 RAE07B35E48DZB07E19B48 SLP112 VIS W-NW 2 P0002 T00830067 $

Conditions at: KALB observed 24 October 2014  15:01 UTC
Temperature: 7.8°C (46°F)
Dewpoint: 6.1°C (43°F) [RH = 89%]
Pressure (altimeter): 29.86 inches Hg (1011.3 mb)
Winds: from the ENE (60 degrees) at 6 MPH (5 knots; 2.6 m/s)
Visibility: 3 miles (5 km)
Ceiling: 600 feet AGL
Clouds: broken clouds at 600 feet AGL
overcast cloud deck at 1300 feet AGL
Present Weather: -RA BR  (light rain, mist)
KALB 241501Z 06005KT 3SM -RA BR BKN006 OVC013 08/06 A2986 RMK AO2 CIG 004V008 P0001 T00780061

Conditions at: KALB observed 24 October 2014  14:51 UTC
Temperature: 7.8°C (46°F)
Dewpoint: 6.7°C (44°F) [RH = 93%]
Pressure (altimeter): 29.86 inches Hg (1011.3 mb)
[Sea-level pressure: 1011.3 mb]
Winds: from the NE (50 degrees) at 6 MPH (5 knots; 2.6 m/s)
Visibility: 1.75 miles (2.82 km)
Ceiling: 600 feet AGL
Clouds: broken clouds at 600 feet AGL
overcast cloud deck at 1300 feet AGL
Present Weather: -RA BR  (light rain, mist)
KALB 241451Z 05005KT 1 3/4SM R01/5500VP6000FT -RA BR BKN006 OVC013 08/07 A2986 RMK AO2 SFC VIS 2 DZE49RAB49 SLP113 VIS 1 1/4V3 CIG 004V008 P0005 60009 T00780067 50004

Conditions at: KALB observed 24 October 2014  13:51 UTC
Temperature: 7.8°C (46°F)
Dewpoint: 6.7°C (44°F) [RH = 93%]
Pressure (altimeter): 29.87 inches Hg (1011.6 mb)
[Sea-level pressure: 1011.5 mb]
Winds: from the NNE (30 degrees) at 6 MPH (5 knots; 2.6 m/s)
Visibility: 1.50 miles (2.41 km)
Ceiling: 500 feet AGL
Clouds: overcast cloud deck at 500 feet AGL
Present Weather: -DZ BR  (light drizzle, mist)
SOME DATA ABOVE MAY BE INACCURATE!!!
"$" is an indication the sensor requires maintenance
KALB 241351Z 03005KT 1 1/2SM R01/4500VP6000FT -DZ BR OVC005 08/07 A2987 RMK AO2 SFC VIS 1 3/4 SLP115 VIS 1 1/4V2 1/2 CIG 003V007 P0002 T00780067 $

Conditions at: KALB observed 24 October 2014  13:23 UTC
Temperature: 7.8°C (46°F)
Dewpoint: 6.7°C (44°F) [RH = 93%]
Pressure (altimeter): 29.86 inches Hg (1011.3 mb)
Winds: from the NNE (20 degrees) at 5 MPH (4 knots; 2.1 m/s)
Visibility: 1.50 miles (2.41 km)
Ceiling: 600 feet AGL
Clouds: broken clouds at 600 feet AGL
overcast cloud deck at 1200 feet AGL
Present Weather: -DZ BR  (light drizzle, mist)
SOME DATA ABOVE MAY BE INACCURATE!!!
"$" is an indication the sensor requires maintenance
KALB 241323Z COR 02004KT 1 1/2SM -DZ BR BKN006 OVC012 08/07 A2986 RMK AO2 SFC VIS 2 VIS 1 1/4V3 CIG 004V008 P0000 T00780067 $

Conditions at: KALB observed 24 October 2014  12:51 UTC
Temperature: 7.8°C (46°F)
Dewpoint: 6.1°C (43°F) [RH = 89%]
Pressure (altimeter): 29.85 inches Hg (1010.9 mb)
[Sea-level pressure: 1011.0 mb]
Winds: from the NNE (20 degrees) at 7 MPH (6 knots; 3.1 m/s)
Visibility: 3 miles (5 km)
Ceiling: 600 feet AGL
Clouds: broken clouds at 600 feet AGL
broken clouds at 1200 feet AGL
overcast cloud deck at 2000 feet AGL
Present Weather: -DZ BR  (light drizzle, mist)
SOME DATA ABOVE MAY BE INACCURATE!!!
"$" is an indication the sensor requires maintenance
KALB 241251Z 02006KT 3SM -DZ BR BKN006 BKN012 OVC020 08/06 A2985 RMK AO2 RAE1155DZB1155 SLP110 VIS W-NW 2 BKN006 V SCT P0002 T00780061 $

Conditions at: KALB observed 24 October 2014  12:28 UTC
Temperature: 7.8°C (46°F)
Dewpoint: 6.1°C (43°F) [RH = 89%]
Pressure (altimeter): 29.85 inches Hg (1010.9 mb)
Winds: from the N (360 degrees) at 5 MPH (4 knots; 2.1 m/s)
Visibility: 3 miles (5 km)
Ceiling: 700 feet AGL
Clouds: broken clouds at 700 feet AGL
broken clouds at 1200 feet AGL
overcast cloud deck at 2000 feet AGL
Present Weather: -DZ BR  (light drizzle, mist)
SOME DATA ABOVE MAY BE INACCURATE!!!
"$" is an indication the sensor requires maintenance
KALB 241228Z 36004KT 3SM -DZ BR BKN007 BKN012 OVC020 08/06 A2985 RMK AO2 RAE1155DZB1155 VIS W-NW 2 CIG 004V010 P0001 T00780061 $

Conditions at: KALB observed 24 October 2014  11:51 UTC
Temperature: 7.8°C (46°F)
Dewpoint: 6.1°C (43°F) [RH = 89%]
Pressure (altimeter): 29.85 inches Hg (1010.9 mb)
[Sea-level pressure: 1010.9 mb]
Winds: from the NNW (340 degrees) at 6 MPH (5 knots; 2.6 m/s)
Visibility: 2.50 miles (4.02 km)
Ceiling: 700 feet AGL
Clouds: broken clouds at 700 feet AGL
overcast cloud deck at 1200 feet AGL
Present Weather: -RA BR  (light rain, mist)
SOME DATA ABOVE MAY BE INACCURATE!!!
"$" is an indication the sensor requires maintenance
KALB 241151Z 34005KT 2 1/2SM -RA BR BKN007 OVC012 08/06 A2985 RMK AO2 TWR VIS 3 SLP109 VIS 2V3 CIG 005V010 P0006 60014 70074 T00780061 10083 20072 50005 $

Conditions at: KALB observed 24 October 2014  11:45 UTC
Temperature: 7.0°C (45°F)
Dewpoint: 6.0°C (43°F) [RH = 93%]
Pressure (altimeter): 29.85 inches Hg (1010.9 mb)
Winds: from the N (360 degrees) at 6 MPH (5 knots; 2.6 m/s)
Visibility: 2.50 miles (4.02 km)
Ceiling: 700 feet AGL
Clouds: broken clouds at 700 feet AGL
overcast cloud deck at 1200 feet AGL
Present Weather: -RA BR  (light rain, mist)
SOME DATA ABOVE MAY BE INACCURATE!!!
"$" is an indication the sensor requires maintenance
KALB 241145Z 36005KT 2 1/2SM -RA BR BKN007 OVC012 07/06 A2985 RMK AO2 TWR VIS 3 VIS 2V3 CIG 005V010 P0005 $

Conditions at: KALB observed 24 October 2014  11:31 UTC
Temperature: 7.2°C (45°F)
Dewpoint: 6.1°C (43°F) [RH = 93%]
Pressure (altimeter): 29.85 inches Hg (1010.9 mb)
Winds: from the N (10 degrees) at 7 MPH (6 knots; 3.1 m/s)
Visibility: 3 miles (5 km)
Ceiling: 700 feet AGL
Clouds: broken clouds at 700 feet AGL
overcast cloud deck at 1200 feet AGL
Present Weather: -RA BR  (light rain, mist)
SOME DATA ABOVE MAY BE INACCURATE!!!
"$" is an indication the sensor requires maintenance
KALB 241131Z 01006KT 3SM -RA BR BKN007 OVC012 07/06 A2985 RMK AO2 VIS W-NW 2 CIG 005V010 P0004 T00720061 $

Conditions at: KALB observed 24 October 2014  11:26 UTC
Temperature: 7.8°C (46°F)
Dewpoint: 6.1°C (43°F) [RH = 89%]
Pressure (altimeter): 29.85 inches Hg (1010.9 mb)
Winds: from the N (10 degrees) at 6 MPH (5 knots; 2.6 m/s)
Visibility: 2.50 miles (4.02 km)
Ceiling: 700 feet AGL
Clouds: overcast cloud deck at 700 feet AGL
Present Weather: -RA BR  (light rain, mist)
SOME DATA ABOVE MAY BE INACCURATE!!!
"$" is an indication the sensor requires maintenance
KALB 241126Z 01005KT 2 1/2SM -RA BR OVC007 08/06 A2985 RMK AO2 SFC VIS 3 VIS W-NW 1 1/2 CIG 004V010 P0004 T00780061 $

Conditions at: KALB observed 24 October 2014  11:14 UTC
Temperature: 7.8°C (46°F)
Dewpoint: 6.1°C (43°F) [RH = 89%]
Pressure (altimeter): 29.84 inches Hg (1010.6 mb)
Winds: from the N (360 degrees) at 5 MPH (4 knots; 2.1 m/s)
Visibility: 1.50 miles (2.41 km)
Ceiling: 700 feet AGL
Clouds: overcast cloud deck at 700 feet AGL
Present Weather: -RA BR  (light rain, mist)
KALB 241114Z 36004KT 1 1/2SM -RA BR OVC007 08/06 A2984 RMK AO2 SFC VIS 2 VIS W-NW 1 1/2 CIG 004V009 P0003 T00780061

Conditions at: KALB observed 24 October 2014  10:51 UTC
Temperature: 7.8°C (46°F)
Dewpoint: 6.7°C (44°F) [RH = 93%]
Pressure (altimeter): 29.84 inches Hg (1010.6 mb)
[Sea-level pressure: 1010.6 mb]
Winds: from the NE (40 degrees) at 5 MPH (4 knots; 2.1 m/s)
Visibility: 3 miles (5 km)
Ceiling: 700 feet AGL
Clouds: overcast cloud deck at 700 feet AGL
Present Weather: -RA BR  (light rain, mist)
KALB 241051Z 04004KT 3SM -RA BR OVC007 08/07 A2984 RMK AO2 SLP106 VIS W-NW 2 P0004 T00780067

Conditions at: KALB observed 24 October 2014  09:51 UTC
Temperature: 7.8°C (46°F)
Dewpoint: 6.7°C (44°F) [RH = 93%]
Pressure (altimeter): 29.83 inches Hg (1010.2 mb)
[Sea-level pressure: 1010.3 mb]
Winds: from the N (10 degrees) at 5 MPH (4 knots; 2.1 m/s)
Visibility: 4 miles (6 km)
Ceiling: 700 feet AGL
Clouds: broken clouds at 700 feet AGL
broken clouds at 1200 feet AGL
overcast cloud deck at 4000 feet AGL
Present Weather: -RA BR  (light rain, mist)
KALB 240951Z 01004KT 4SM -RA BR BKN007 BKN012 OVC040 08/07 A2983 RMK AO2 RAE06B46DZB06E46 SLP103 P0002 T00780067